Brent, United Kingdom
Current Conditions -  °F | °C
As of 1:50 PM on Sunday 23 Nov 2014 (Local Time) from EGWU Reporting Station
Light Rain Light Rain  
Wind Chill:   Ceiling: 5000
Heat Index:   Visibility: 6mi
Dew Point:   Wind: 8mph
Humidity: 93%   Direction: 350°N
Pressure: 30"   Gusts: NA
Location:  51.55°N, 0.3°W
Report Text: EGWU 231350Z 35007KT 9999 -RA FEW010 SCT045 BKN050 07/06 Q1016 BLU TEMPO SCT010 GRN
Loading
Personal Weather Stations






























Interactive Weather Map New forecast layout! Learn more

10-Day Weather Forecast

Advertisements
Track Severe Weather on mobile